sensor_id;sensor_type;location;lat;lon;timestamp;P1;durP1;ratioP1;P2;durP2;ratioP2
60368;SDS011;46208;44.634;10.492;2022-09-09T00:03:00;1.05;;;0.47;;
60368;SDS011;46208;44.634;10.492;2022-09-09T00:06:11;0.22;;;0.20;;
60368;SDS011;46208;44.634;10.492;2022-09-09T00:09:22;0.22;;;0.22;;
60368;SDS011;46208;44.634;10.492;2022-09-09T00:12:39;0.65;;;0.65;;
60368;SDS011;46208;44.634;10.492;2022-09-09T00:19:20;1.75;;;0.40;;
60368;SDS011;46208;44.634;10.492;2022-09-09T00:22:29;0.50;;;0.43;;
60368;SDS011;46208;44.634;10.492;2022-09-09T00:25:42;0.55;;;0.38;;
60368;SDS011;46208;44.634;10.492;2022-09-09T00:29:14;0.43;;;0.40;;
60368;SDS011;46208;44.634;10.492;2022-09-09T00:32:22;0.40;;;0.40;;
60368;SDS011;46208;44.634;10.492;2022-09-09T00:35:31;0.57;;;0.40;;
60368;SDS011;46208;44.634;10.492;2022-09-09T00:38:58;0.20;;;0.20;;
60368;SDS011;46208;44.634;10.492;2022-09-09T00:58:16;0.30;;;0.30;;
60368;SDS011;46208;44.634;10.492;2022-09-09T01:01:20;0.95;;;0.20;;
60368;SDS011;46208;44.634;10.492;2022-09-09T01:04:27;2.38;;;0.30;;
60368;SDS011;46208;44.634;10.492;2022-09-09T01:07:34;0.55;;;0.38;;
60368;SDS011;46208;44.634;10.492;2022-09-09T01:10:50;0.38;;;0.38;;
60368;SDS011;46208;44.634;10.492;2022-09-09T01:14:01;0.50;;;0.30;;
60368;SDS011;46208;44.634;10.492;2022-09-09T01:20:37;0.28;;;0.20;;
60368;SDS011;46208;44.634;10.492;2022-09-09T01:27:05;0.40;;;0.40;;
60368;SDS011;46208;44.634;10.492;2022-09-09T01:30:11;0.50;;;0.50;;
60368;SDS011;46208;44.634;10.492;2022-09-09T01:33:17;0.25;;;0.25;;
60368;SDS011;46208;44.634;10.492;2022-09-09T01:40:04;0.45;;;0.40;;
60368;SDS011;46208;44.634;10.492;2022-09-09T01:43:11;1.45;;;0.30;;
60368;SDS011;46208;44.634;10.492;2022-09-09T01:46:16;0.35;;;0.20;;
60368;SDS011;46208;44.634;10.492;2022-09-09T01:49:20;0.35;;;0.35;;
60368;SDS011;46208;44.634;10.492;2022-09-09T01:52:24;0.55;;;0.47;;
60368;SDS011;46208;44.634;10.492;2022-09-09T01:55:32;0.98;;;0.40;;
60368;SDS011;46208;44.634;10.492;2022-09-09T02:02:17;0.20;;;0.20;;
60368;SDS011;46208;44.634;10.492;2022-09-09T02:08:52;1.10;;;0.50;;
60368;SDS011;46208;44.634;10.492;2022-09-09T02:12:01;0.20;;;0.20;;
60368;SDS011;46208;44.634;10.492;2022-09-09T02:15:28;0.68;;;0.40;;
60368;SDS011;46208;44.634;10.492;2022-09-09T02:21:46;0.30;;;0.30;;
60368;SDS011;46208;44.634;10.492;2022-09-09T02:24:50;0.30;;;0.30;;
60368;SDS011;46208;44.634;10.492;2022-09-09T02:28:01;0.30;;;0.30;;
60368;SDS011;46208;44.634;10.492;2022-09-09T02:31:07;0.50;;;0.50;;
60368;SDS011;46208;44.634;10.492;2022-09-09T02:34:17;0.75;;;0.50;;
60368;SDS011;46208;44.634;10.492;2022-09-09T02:37:23;0.13;;;0.13;;
60368;SDS011;46208;44.634;10.492;2022-09-09T02:40:32;0.30;;;0.30;;
60368;SDS011;46208;44.634;10.492;2022-09-09T02:43:39;0.30;;;0.30;;
60368;SDS011;46208;44.634;10.492;2022-09-09T02:53:19;0.40;;;0.40;;
60368;SDS011;46208;44.634;10.492;2022-09-09T02:56:27;0.52;;;0.52;;
60368;SDS011;46208;44.634;10.492;2022-09-09T02:59:34;0.38;;;0.38;;
60368;SDS011;46208;44.634;10.492;2022-09-09T03:02:38;1.02;;;0.40;;
60368;SDS011;46208;44.634;10.492;2022-09-09T03:05:43;0.38;;;0.38;;
60368;SDS011;46208;44.634;10.492;2022-09-09T03:08:48;0.77;;;0.40;;
60368;SDS011;46208;44.634;10.492;2022-09-09T03:11:55;0.50;;;0.50;;
60368;SDS011;46208;44.634;10.492;2022-09-09T03:15:00;0.60;;;0.60;;
60368;SDS011;46208;44.634;10.492;2022-09-09T03:18:04;0.90;;;0.32;;
60368;SDS011;46208;44.634;10.492;2022-09-09T03:21:07;0.32;;;0.32;;
60368;SDS011;46208;44.634;10.492;2022-09-09T03:24:13;1.50;;;0.70;;
60368;SDS011;46208;44.634;10.492;2022-09-09T03:27:17;0.45;;;0.40;;
60368;SDS011;46208;44.634;10.492;2022-09-09T03:30:26;0.30;;;0.30;;
60368;SDS011;46208;44.634;10.492;2022-09-09T03:33:32;0.57;;;0.40;;
60368;SDS011;46208;44.634;10.492;2022-09-09T03:36:38;0.95;;;0.40;;
60368;SDS011;46208;44.634;10.492;2022-09-09T03:39:42;0.70;;;0.52;;
60368;SDS011;46208;44.634;10.492;2022-09-09T03:42:46;0.30;;;0.20;;
60368;SDS011;46208;44.634;10.492;2022-09-09T03:45:51;0.50;;;0.50;;
60368;SDS011;46208;44.634;10.492;2022-09-09T03:48:55;0.77;;;0.43;;
60368;SDS011;46208;44.634;10.492;2022-09-09T03:52:00;1.13;;;0.85;;
60368;SDS011;46208;44.634;10.492;2022-09-09T03:55:05;0.30;;;0.30;;
60368;SDS011;46208;44.634;10.492;2022-09-09T03:58:09;0.20;;;0.20;;
60368;SDS011;46208;44.634;10.492;2022-09-09T04:01:14;2.75;;;0.30;;
60368;SDS011;46208;44.634;10.492;2022-09-09T04:04:20;0.22;;;0.22;;
60368;SDS011;46208;44.634;10.492;2022-09-09T04:07:24;0.28;;;0.28;;
60368;SDS011;46208;44.634;10.492;2022-09-09T04:10:28;0.40;;;0.30;;
60368;SDS011;46208;44.634;10.492;2022-09-09T04:13:34;1.13;;;0.63;;
60368;SDS011;46208;44.634;10.492;2022-09-09T04:16:39;0.77;;;0.28;;
60368;SDS011;46208;44.634;10.492;2022-09-09T04:19:48;2.05;;;0.65;;
60368;SDS011;46208;44.634;10.492;2022-09-09T04:22:53;1.02;;;0.40;;
60368;SDS011;46208;44.634;10.492;2022-09-09T04:25:58;0.30;;;0.30;;
60368;SDS011;46208;44.634;10.492;2022-09-09T04:29:03;1.48;;;0.45;;
60368;SDS011;46208;44.634;10.492;2022-09-09T04:32:07;1.63;;;0.70;;
60368;SDS011;46208;44.634;10.492;2022-09-09T04:35:11;0.28;;;0.22;;
60368;SDS011;46208;44.634;10.492;2022-09-09T04:38:16;1.50;;;0.50;;
60368;SDS011;46208;44.634;10.492;2022-09-09T04:41:21;0.50;;;0.40;;
60368;SDS011;46208;44.634;10.492;2022-09-09T04:44:27;0.95;;;0.45;;
60368;SDS011;46208;44.634;10.492;2022-09-09T04:47:31;0.40;;;0.40;;
60368;SDS011;46208;44.634;10.492;2022-09-09T04:50:35;0.25;;;0.25;;
60368;SDS011;46208;44.634;10.492;2022-09-09T04:53:40;0.80;;;0.45;;
60368;SDS011;46208;44.634;10.492;2022-09-09T04:56:44;0.40;;;0.40;;
60368;SDS011;46208;44.634;10.492;2022-09-09T04:59:48;0.50;;;0.50;;
60368;SDS011;46208;44.634;10.492;2022-09-09T05:02:52;0.45;;;0.45;;
60368;SDS011;46208;44.634;10.492;2022-09-09T05:06:02;0.52;;;0.50;;
60368;SDS011;46208;44.634;10.492;2022-09-09T05:09:08;0.50;;;0.50;;
60368;SDS011;46208;44.634;10.492;2022-09-09T05:12:12;0.38;;;0.38;;
60368;SDS011;46208;44.634;10.492;2022-09-09T05:15:22;0.30;;;0.30;;
60368;SDS011;46208;44.634;10.492;2022-09-09T05:18:26;2.38;;;0.57;;
60368;SDS011;46208;44.634;10.492;2022-09-09T05:21:29;0.40;;;0.40;;
60368;SDS011;46208;44.634;10.492;2022-09-09T05:24:34;2.55;;;0.40;;
60368;SDS011;46208;44.634;10.492;2022-09-09T05:27:40;0.77;;;0.50;;
60368;SDS011;46208;44.634;10.492;2022-09-09T05:30:43;0.63;;;0.50;;
60368;SDS011;46208;44.634;10.492;2022-09-09T05:33:48;0.30;;;0.30;;
60368;SDS011;46208;44.634;10.492;2022-09-09T05:36:53;0.40;;;0.40;;
60368;SDS011;46208;44.634;10.492;2022-09-09T05:39:59;0.40;;;0.40;;
60368;SDS011;46208;44.634;10.492;2022-09-09T05:43:04;2.92;;;0.30;;
60368;SDS011;46208;44.634;10.492;2022-09-09T05:46:09;2.50;;;0.75;;
60368;SDS011;46208;44.634;10.492;2022-09-09T05:49:18;0.50;;;0.50;;
60368;SDS011;46208;44.634;10.492;2022-09-09T05:52:22;0.35;;;0.35;;
60368;SDS011;46208;44.634;10.492;2022-09-09T05:55:27;0.80;;;0.50;;
60368;SDS011;46208;44.634;10.492;2022-09-09T05:58:31;1.88;;;0.60;;
60368;SDS011;46208;44.634;10.492;2022-09-09T06:01:36;0.70;;;0.50;;
60368;SDS011;46208;44.634;10.492;2022-09-09T06:04:45;1.33;;;0.30;;
60368;SDS011;46208;44.634;10.492;2022-09-09T06:07:51;0.75;;;0.75;;
60368;SDS011;46208;44.634;10.492;2022-09-09T06:11:00;5.68;;;0.85;;
60368;SDS011;46208;44.634;10.492;2022-09-09T06:14:07;0.70;;;0.70;;
60368;SDS011;46208;44.634;10.492;2022-09-09T06:17:11;3.00;;;1.00;;
60368;SDS011;46208;44.634;10.492;2022-09-09T06:20:15;0.80;;;0.80;;
60368;SDS011;46208;44.634;10.492;2022-09-09T06:23:19;1.00;;;0.90;;
60368;SDS011;46208;44.634;10.492;2022-09-09T06:26:24;1.13;;;0.95;;
60368;SDS011;46208;44.634;10.492;2022-09-09T06:29:30;1.00;;;0.90;;
60368;SDS011;46208;44.634;10.492;2022-09-09T06:32:34;1.38;;;1.17;;
60368;SDS011;46208;44.634;10.492;2022-09-09T06:35:38;2.75;;;1.02;;
60368;SDS011;46208;44.634;10.492;2022-09-09T06:38:42;0.85;;;0.73;;
60368;SDS011;46208;44.634;10.492;2022-09-09T06:41:47;0.93;;;0.68;;
60368;SDS011;46208;44.634;10.492;2022-09-09T06:45:23;0.70;;;0.68;;
60368;SDS011;46208;44.634;10.492;2022-09-09T06:48:32;3.05;;;1.25;;
60368;SDS011;46208;44.634;10.492;2022-09-09T06:51:37;1.00;;;0.98;;
60368;SDS011;46208;44.634;10.492;2022-09-09T06:54:47;0.60;;;0.60;;
60368;SDS011;46208;44.634;10.492;2022-09-09T06:57:53;1.10;;;1.00;;
60368;SDS011;46208;44.634;10.492;2022-09-09T07:01:03;4.78;;;1.10;;
60368;SDS011;46208;44.634;10.492;2022-09-09T07:04:09;1.52;;;1.10;;
60368;SDS011;46208;44.634;10.492;2022-09-09T07:07:15;1.92;;;1.30;;
60368;SDS011;46208;44.634;10.492;2022-09-09T07:10:19;1.45;;;1.17;;
60368;SDS011;46208;44.634;10.492;2022-09-09T07:13:26;5.45;;;1.80;;
60368;SDS011;46208;44.634;10.492;2022-09-09T07:16:32;3.10;;;1.67;;
60368;SDS011;46208;44.634;10.492;2022-09-09T07:19:37;3.22;;;1.60;;
60368;SDS011;46208;44.634;10.492;2022-09-09T07:22:42;3.80;;;1.65;;
60368;SDS011;46208;44.634;10.492;2022-09-09T07:25:47;2.00;;;1.35;;
60368;SDS011;46208;44.634;10.492;2022-09-09T07:28:53;2.38;;;1.58;;
60368;SDS011;46208;44.634;10.492;2022-09-09T07:32:00;4.03;;;1.90;;
60368;SDS011;46208;44.634;10.492;2022-09-09T07:35:08;2.00;;;1.48;;
60368;SDS011;46208;44.634;10.492;2022-09-09T07:38:12;7.18;;;2.00;;
60368;SDS011;46208;44.634;10.492;2022-09-09T07:41:18;1.73;;;1.20;;
60368;SDS011;46208;44.634;10.492;2022-09-09T07:44:27;2.22;;;1.40;;
60368;SDS011;46208;44.634;10.492;2022-09-09T07:47:42;4.15;;;1.58;;
60368;SDS011;46208;44.634;10.492;2022-09-09T07:50:46;1.85;;;1.40;;
60368;SDS011;46208;44.634;10.492;2022-09-09T07:53:57;1.55;;;1.25;;
60368;SDS011;46208;44.634;10.492;2022-09-09T07:57:02;1.42;;;1.17;;
60368;SDS011;46208;44.634;10.492;2022-09-09T08:00:09;0.80;;;0.80;;
60368;SDS011;46208;44.634;10.492;2022-09-09T08:03:19;0.52;;;0.50;;
60368;SDS011;46208;44.634;10.492;2022-09-09T08:06:28;2.08;;;0.80;;
60368;SDS011;46208;44.634;10.492;2022-09-09T08:09:32;1.33;;;0.82;;
60368;SDS011;46208;44.634;10.492;2022-09-09T08:12:59;0.65;;;0.63;;
60368;SDS011;46208;44.634;10.492;2022-09-09T08:16:11;2.35;;;1.40;;
60368;SDS011;46208;44.634;10.492;2022-09-09T08:19:18;1.27;;;0.95;;
60368;SDS011;46208;44.634;10.492;2022-09-09T08:22:22;0.60;;;0.60;;
60368;SDS011;46208;44.634;10.492;2022-09-09T08:25:28;1.08;;;0.85;;
60368;SDS011;46208;44.634;10.492;2022-09-09T08:28:32;1.70;;;0.98;;
60368;SDS011;46208;44.634;10.492;2022-09-09T08:31:37;1.30;;;0.93;;
60368;SDS011;46208;44.634;10.492;2022-09-09T08:34:43;1.55;;;1.10;;
60368;SDS011;46208;44.634;10.492;2022-09-09T08:37:55;1.50;;;1.08;;
60368;SDS011;46208;44.634;10.492;2022-09-09T08:50:51;2.00;;;1.45;;
60368;SDS011;46208;44.634;10.492;2022-09-09T08:54:01;3.20;;;1.45;;
60368;SDS011;46208;44.634;10.492;2022-09-09T08:57:07;2.53;;;1.77;;
60368;SDS011;46208;44.634;10.492;2022-09-09T09:00:15;6.75;;;4.07;;
60368;SDS011;46208;44.634;10.492;2022-09-09T09:03:24;6.78;;;3.45;;
60368;SDS011;46208;44.634;10.492;2022-09-09T09:12:50;5.78;;;3.25;;
60368;SDS011;46208;44.634;10.492;2022-09-09T09:15:58;7.03;;;4.07;;
60368;SDS011;46208;44.634;10.492;2022-09-09T09:19:08;6.45;;;4.70;;
60368;SDS011;46208;44.634;10.492;2022-09-09T09:25:46;6.60;;;4.07;;
60368;SDS011;46208;44.634;10.492;2022-09-09T09:28:51;6.88;;;3.85;;
60368;SDS011;46208;44.634;10.492;2022-09-09T09:31:58;5.55;;;3.95;;
60368;SDS011;46208;44.634;10.492;2022-09-09T09:35:06;6.50;;;4.82;;
60368;SDS011;46208;44.634;10.492;2022-09-09T09:38:18;6.38;;;4.22;;
60368;SDS011;46208;44.634;10.492;2022-09-09T09:41:34;5.90;;;2.65;;
60368;SDS011;46208;44.634;10.492;2022-09-09T09:44:41;7.13;;;3.15;;
60368;SDS011;46208;44.634;10.492;2022-09-09T09:47:57;6.72;;;3.45;;
60368;SDS011;46208;44.634;10.492;2022-09-09T09:51:05;8.05;;;3.42;;
60368;SDS011;46208;44.634;10.492;2022-09-09T09:57:17;3.30;;;2.35;;
60368;SDS011;46208;44.634;10.492;2022-09-09T10:00:23;6.50;;;3.13;;
60368;SDS011;46208;44.634;10.492;2022-09-09T10:03:37;5.50;;;2.80;;
60368;SDS011;46208;44.634;10.492;2022-09-09T10:06:44;3.38;;;2.47;;
60368;SDS011;46208;44.634;10.492;2022-09-09T10:09:50;3.88;;;2.10;;
60368;SDS011;46208;44.634;10.492;2022-09-09T10:12:59;5.32;;;2.15;;
60368;SDS011;46208;44.634;10.492;2022-09-09T10:22:36;4.05;;;2.25;;
60368;SDS011;46208;44.634;10.492;2022-09-09T10:29:12;2.10;;;1.85;;
60368;SDS011;46208;44.634;10.492;2022-09-09T10:32:26;3.15;;;2.22;;
60368;SDS011;46208;44.634;10.492;2022-09-09T10:42:29;5.50;;;2.88;;
60368;SDS011;46208;44.634;10.492;2022-09-09T10:55:41;3.35;;;2.42;;
60368;SDS011;46208;44.634;10.492;2022-09-09T11:02:05;2.88;;;1.75;;
60368;SDS011;46208;44.634;10.492;2022-09-09T11:05:17;1.50;;;1.40;;
60368;SDS011;46208;44.634;10.492;2022-09-09T11:08:24;4.55;;;2.05;;
60368;SDS011;46208;44.634;10.492;2022-09-09T11:11:32;7.55;;;2.20;;
60368;SDS011;46208;44.634;10.492;2022-09-09T11:14:44;2.65;;;2.40;;
60368;SDS011;46208;44.634;10.492;2022-09-09T11:17:52;4.10;;;2.20;;
60368;SDS011;46208;44.634;10.492;2022-09-09T11:21:00;2.33;;;1.95;;
60368;SDS011;46208;44.634;10.492;2022-09-09T11:24:08;2.20;;;1.98;;
60368;SDS011;46208;44.634;10.492;2022-09-09T11:30:50;3.65;;;2.58;;
60368;SDS011;46208;44.634;10.492;2022-09-09T11:41:13;4.75;;;2.92;;
60368;SDS011;46208;44.634;10.492;2022-09-09T11:44:28;3.40;;;2.80;;
60368;SDS011;46208;44.634;10.492;2022-09-09T11:47:33;4.03;;;2.35;;
60368;SDS011;46208;44.634;10.492;2022-09-09T11:50:37;5.07;;;1.75;;
60368;SDS011;46208;44.634;10.492;2022-09-09T11:53:51;1.80;;;1.67;;
60368;SDS011;46208;44.634;10.492;2022-09-09T12:00:03;2.53;;;1.35;;
60368;SDS011;46208;44.634;10.492;2022-09-09T12:10:22;1.35;;;1.23;;
60368;SDS011;46208;44.634;10.492;2022-09-09T12:13:30;1.40;;;1.20;;
60368;SDS011;46208;44.634;10.492;2022-09-09T12:16:38;4.65;;;1.20;;
60368;SDS011;46208;44.634;10.492;2022-09-09T12:19:43;1.73;;;1.30;;
60368;SDS011;46208;44.634;10.492;2022-09-09T12:33:11;2.50;;;1.27;;
60368;SDS011;46208;44.634;10.492;2022-09-09T12:36:21;1.23;;;0.98;;
60368;SDS011;46208;44.634;10.492;2022-09-09T12:39:32;2.28;;;1.33;;
60368;SDS011;46208;44.634;10.492;2022-09-09T12:42:41;3.03;;;1.80;;
60368;SDS011;46208;44.634;10.492;2022-09-09T12:45:45;6.05;;;1.60;;
60368;SDS011;46208;44.634;10.492;2022-09-09T12:48:49;1.65;;;1.33;;
60368;SDS011;46208;44.634;10.492;2022-09-09T12:51:52;2.97;;;1.17;;
60368;SDS011;46208;44.634;10.492;2022-09-09T12:54:57;1.55;;;0.90;;
60368;SDS011;46208;44.634;10.492;2022-09-09T12:58:02;2.22;;;1.13;;
60368;SDS011;46208;44.634;10.492;2022-09-09T13:01:17;2.70;;;1.20;;
60368;SDS011;46208;44.634;10.492;2022-09-09T13:04:24;1.58;;;1.48;;
60368;SDS011;46208;44.634;10.492;2022-09-09T13:07:28;1.20;;;1.10;;
60368;SDS011;46208;44.634;10.492;2022-09-09T13:10:36;1.10;;;1.00;;
60368;SDS011;46208;44.634;10.492;2022-09-09T13:13:53;3.30;;;1.30;;
60368;SDS011;46208;44.634;10.492;2022-09-09T13:16:59;1.92;;;1.00;;
60368;SDS011;46208;44.634;10.492;2022-09-09T13:20:04;1.23;;;1.05;;
60368;SDS011;46208;44.634;10.492;2022-09-09T13:23:09;1.40;;;1.20;;
60368;SDS011;46208;44.634;10.492;2022-09-09T13:26:25;1.80;;;1.33;;
60368;SDS011;46208;44.634;10.492;2022-09-09T13:29:30;2.15;;;1.13;;
60368;SDS011;46208;44.634;10.492;2022-09-09T13:32:34;1.80;;;0.90;;
60368;SDS011;46208;44.634;10.492;2022-09-09T13:35:54;2.55;;;1.20;;
60368;SDS011;46208;44.634;10.492;2022-09-09T13:39:00;1.00;;;0.93;;
60368;SDS011;46208;44.634;10.492;2022-09-09T13:42:06;1.20;;;1.05;;
60368;SDS011;46208;44.634;10.492;2022-09-09T13:45:24;0.82;;;0.77;;
60368;SDS011;46208;44.634;10.492;2022-09-09T13:48:29;2.53;;;0.97;;
60368;SDS011;46208;44.634;10.492;2022-09-09T13:51:42;1.08;;;0.95;;
60368;SDS011;46208;44.634;10.492;2022-09-09T13:54:50;1.73;;;1.10;;
60368;SDS011;46208;44.634;10.492;2022-09-09T13:57:55;3.05;;;1.00;;
60368;SDS011;46208;44.634;10.492;2022-09-09T14:01:00;1.67;;;1.20;;
60368;SDS011;46208;44.634;10.492;2022-09-09T14:04:04;1.15;;;1.05;;
60368;SDS011;46208;44.634;10.492;2022-09-09T14:07:14;1.75;;;1.40;;
60368;SDS011;46208;44.634;10.492;2022-09-09T14:10:18;1.13;;;1.02;;
60368;SDS011;46208;44.634;10.492;2022-09-09T14:13:22;3.33;;;1.17;;
60368;SDS011;46208;44.634;10.492;2022-09-09T14:16:26;1.98;;;1.30;;
60368;SDS011;46208;44.634;10.492;2022-09-09T14:19:31;1.65;;;1.30;;
60368;SDS011;46208;44.634;10.492;2022-09-09T14:22:35;1.25;;;1.15;;
60368;SDS011;46208;44.634;10.492;2022-09-09T14:25:40;2.10;;;1.33;;
60368;SDS011;46208;44.634;10.492;2022-09-09T14:28:44;2.05;;;1.42;;
60368;SDS011;46208;44.634;10.492;2022-09-09T14:31:49;2.33;;;1.30;;
60368;SDS011;46208;44.634;10.492;2022-09-09T14:34:53;0.90;;;0.90;;
60368;SDS011;46208;44.634;10.492;2022-09-09T14:37:57;1.98;;;1.73;;
60368;SDS011;46208;44.634;10.492;2022-09-09T14:41:00;1.17;;;1.08;;
60368;SDS011;46208;44.634;10.492;2022-09-09T14:44:06;1.50;;;1.40;;
60368;SDS011;46208;44.634;10.492;2022-09-09T14:47:11;1.50;;;1.40;;
60368;SDS011;46208;44.634;10.492;2022-09-09T14:50:15;2.83;;;1.60;;
60368;SDS011;46208;44.634;10.492;2022-09-09T14:53:19;2.97;;;1.80;;
60368;SDS011;46208;44.634;10.492;2022-09-09T14:56:24;1.92;;;1.30;;
60368;SDS011;46208;44.634;10.492;2022-09-09T14:59:29;2.00;;;1.20;;
60368;SDS011;46208;44.634;10.492;2022-09-09T15:02:33;1.67;;;1.23;;
60368;SDS011;46208;44.634;10.492;2022-09-09T15:05:37;2.70;;;1.42;;
60368;SDS011;46208;44.634;10.492;2022-09-09T15:08:42;1.65;;;1.30;;
60368;SDS011;46208;44.634;10.492;2022-09-09T15:11:47;3.38;;;1.50;;
60368;SDS011;46208;44.634;10.492;2022-09-09T15:14:50;1.00;;;0.73;;
60368;SDS011;46208;44.634;10.492;2022-09-09T15:17:55;1.65;;;1.40;;
60368;SDS011;46208;44.634;10.492;2022-09-09T15:20:59;1.65;;;1.08;;
60368;SDS011;46208;44.634;10.492;2022-09-09T15:24:05;3.08;;;1.70;;
60368;SDS011;46208;44.634;10.492;2022-09-09T15:27:11;3.60;;;1.33;;
60368;SDS011;46208;44.634;10.492;2022-09-09T15:30:15;1.33;;;1.20;;
60368;SDS011;46208;44.634;10.492;2022-09-09T15:33:20;2.55;;;1.30;;
60368;SDS011;46208;44.634;10.492;2022-09-09T15:36:25;2.17;;;1.02;;
60368;SDS011;46208;44.634;10.492;2022-09-09T15:39:29;1.00;;;0.90;;
60368;SDS011;46208;44.634;10.492;2022-09-09T15:42:33;1.35;;;1.25;;
60368;SDS011;46208;44.634;10.492;2022-09-09T15:45:37;2.93;;;1.23;;
60368;SDS011;46208;44.634;10.492;2022-09-09T15:48:41;2.00;;;1.60;;
60368;SDS011;46208;44.634;10.492;2022-09-09T15:51:46;2.50;;;1.50;;
60368;SDS011;46208;44.634;10.492;2022-09-09T15:54:50;2.42;;;1.35;;
60368;SDS011;46208;44.634;10.492;2022-09-09T15:57:54;1.02;;;0.93;;
60368;SDS011;46208;44.634;10.492;2022-09-09T16:01:04;0.98;;;0.88;;
60368;SDS011;46208;44.634;10.492;2022-09-09T16:04:10;1.90;;;1.25;;
60368;SDS011;46208;44.634;10.492;2022-09-09T16:07:14;2.63;;;0.95;;
60368;SDS011;46208;44.634;10.492;2022-09-09T16:10:17;1.20;;;1.10;;
60368;SDS011;46208;44.634;10.492;2022-09-09T16:13:22;2.20;;;1.00;;
60368;SDS011;46208;44.634;10.492;2022-09-09T16:16:27;1.73;;;1.05;;
60368;SDS011;46208;44.634;10.492;2022-09-09T16:19:32;2.95;;;1.17;;
60368;SDS011;46208;44.634;10.492;2022-09-09T16:22:35;0.82;;;0.80;;
60368;SDS011;46208;44.634;10.492;2022-09-09T16:25:39;1.83;;;0.88;;
60368;SDS011;46208;44.634;10.492;2022-09-09T16:28:43;2.10;;;0.80;;
60368;SDS011;46208;44.634;10.492;2022-09-09T16:31:49;2.00;;;0.90;;
60368;SDS011;46208;44.634;10.492;2022-09-09T16:34:54;1.23;;;0.70;;
60368;SDS011;46208;44.634;10.492;2022-09-09T16:37:57;0.50;;;0.50;;
60368;SDS011;46208;44.634;10.492;2022-09-09T16:41:02;1.25;;;0.70;;
60368;SDS011;46208;44.634;10.492;2022-09-09T16:44:08;0.68;;;0.68;;
60368;SDS011;46208;44.634;10.492;2022-09-09T16:47:13;1.25;;;0.80;;
60368;SDS011;46208;44.634;10.492;2022-09-09T16:50:17;2.05;;;0.70;;
60368;SDS011;46208;44.634;10.492;2022-09-09T16:53:21;1.30;;;0.68;;
60368;SDS011;46208;44.634;10.492;2022-09-09T16:56:25;1.13;;;0.80;;
60368;SDS011;46208;44.634;10.492;2022-09-09T16:59:30;1.15;;;0.63;;
60368;SDS011;46208;44.634;10.492;2022-09-09T17:02:35;0.60;;;0.60;;
60368;SDS011;46208;44.634;10.492;2022-09-09T17:05:40;1.02;;;0.60;;
60368;SDS011;46208;44.634;10.492;2022-09-09T17:08:44;1.83;;;0.60;;
60368;SDS011;46208;44.634;10.492;2022-09-09T17:11:48;0.85;;;0.80;;
60368;SDS011;46208;44.634;10.492;2022-09-09T17:14:54;0.60;;;0.52;;
60368;SDS011;46208;44.634;10.492;2022-09-09T17:17:58;1.08;;;0.63;;
60368;SDS011;46208;44.634;10.492;2022-09-09T17:21:09;0.98;;;0.80;;
60368;SDS011;46208;44.634;10.492;2022-09-09T17:24:16;0.65;;;0.65;;
60368;SDS011;46208;44.634;10.492;2022-09-09T17:27:20;1.38;;;0.77;;
60368;SDS011;46208;44.634;10.492;2022-09-09T17:30:24;0.70;;;0.70;;
60368;SDS011;46208;44.634;10.492;2022-09-09T17:33:28;1.70;;;0.50;;
60368;SDS011;46208;44.634;10.492;2022-09-09T17:36:33;0.55;;;0.55;;
60368;SDS011;46208;44.634;10.492;2022-09-09T17:39:37;1.13;;;0.75;;
60368;SDS011;46208;44.634;10.492;2022-09-09T17:42:41;1.13;;;0.98;;
60368;SDS011;46208;44.634;10.492;2022-09-09T17:45:45;0.98;;;0.60;;
60368;SDS011;46208;44.634;10.492;2022-09-09T17:48:50;2.90;;;0.55;;
60368;SDS011;46208;44.634;10.492;2022-09-09T17:51:56;0.90;;;0.60;;
60368;SDS011;46208;44.634;10.492;2022-09-09T17:54:59;0.43;;;0.43;;
60368;SDS011;46208;44.634;10.492;2022-09-09T17:58:03;1.27;;;0.45;;
60368;SDS011;46208;44.634;10.492;2022-09-09T18:01:09;0.57;;;0.52;;
60368;SDS011;46208;44.634;10.492;2022-09-09T18:04:15;1.05;;;0.70;;
60368;SDS011;46208;44.634;10.492;2022-09-09T18:07:19;0.40;;;0.40;;
60368;SDS011;46208;44.634;10.492;2022-09-09T18:10:23;0.68;;;0.47;;
60368;SDS011;46208;44.634;10.492;2022-09-09T18:13:27;0.57;;;0.50;;
60368;SDS011;46208;44.634;10.492;2022-09-09T18:16:32;0.40;;;0.40;;
60368;SDS011;46208;44.634;10.492;2022-09-09T18:19:38;0.38;;;0.38;;
60368;SDS011;46208;44.634;10.492;2022-09-09T18:22:42;1.05;;;0.45;;
60368;SDS011;46208;44.634;10.492;2022-09-09T18:25:46;0.50;;;0.32;;
60368;SDS011;46208;44.634;10.492;2022-09-09T18:28:52;1.13;;;0.50;;
60368;SDS011;46208;44.634;10.492;2022-09-09T18:31:56;0.40;;;0.40;;
60368;SDS011;46208;44.634;10.492;2022-09-09T18:35:00;0.28;;;0.28;;
60368;SDS011;46208;44.634;10.492;2022-09-09T18:38:04;0.30;;;0.30;;
60368;SDS011;46208;44.634;10.492;2022-09-09T18:41:15;1.30;;;1.05;;
60368;SDS011;46208;44.634;10.492;2022-09-09T18:44:31;0.87;;;0.40;;
60368;SDS011;46208;44.634;10.492;2022-09-09T18:47:35;0.30;;;0.30;;
60368;SDS011;46208;44.634;10.492;2022-09-09T18:50:40;0.52;;;0.50;;
60368;SDS011;46208;44.634;10.492;2022-09-09T18:53:54;0.40;;;0.32;;
60368;SDS011;46208;44.634;10.492;2022-09-09T18:56:59;0.82;;;0.40;;
60368;SDS011;46208;44.634;10.492;2022-09-09T19:00:04;0.70;;;0.40;;
60368;SDS011;46208;44.634;10.492;2022-09-09T19:03:09;0.40;;;0.40;;
60368;SDS011;46208;44.634;10.492;2022-09-09T19:06:16;0.52;;;0.38;;
60368;SDS011;46208;44.634;10.492;2022-09-09T19:09:21;0.30;;;0.30;;
60368;SDS011;46208;44.634;10.492;2022-09-09T19:12:25;0.20;;;0.20;;
60368;SDS011;46208;44.634;10.492;2022-09-09T19:15:28;0.40;;;0.40;;
60368;SDS011;46208;44.634;10.492;2022-09-09T19:18:33;0.57;;;0.32;;
60368;SDS011;46208;44.634;10.492;2022-09-09T19:21:39;0.30;;;0.30;;
60368;SDS011;46208;44.634;10.492;2022-09-09T19:24:44;0.50;;;0.50;;
60368;SDS011;46208;44.634;10.492;2022-09-09T19:27:48;0.60;;;0.40;;
60368;SDS011;46208;44.634;10.492;2022-09-09T19:30:52;1.83;;;0.30;;
60368;SDS011;46208;44.634;10.492;2022-09-09T19:33:56;3.63;;;0.60;;
60368;SDS011;46208;44.634;10.492;2022-09-09T19:37:00;0.30;;;0.30;;
60368;SDS011;46208;44.634;10.492;2022-09-09T19:40:04;0.28;;;0.28;;
60368;SDS011;46208;44.634;10.492;2022-09-09T19:43:10;0.43;;;0.30;;
60368;SDS011;46208;44.634;10.492;2022-09-09T19:46:13;1.20;;;0.40;;
60368;SDS011;46208;44.634;10.492;2022-09-09T19:49:17;0.35;;;0.32;;
60368;SDS011;46208;44.634;10.492;2022-09-09T19:52:21;0.68;;;0.40;;
60368;SDS011;46208;44.634;10.492;2022-09-09T19:55:25;0.35;;;0.20;;
60368;SDS011;46208;44.634;10.492;2022-09-09T19:58:29;0.90;;;0.45;;
60368;SDS011;46208;44.634;10.492;2022-09-09T20:01:38;0.52;;;0.45;;
60368;SDS011;46208;44.634;10.492;2022-09-09T20:04:43;0.70;;;0.32;;
60368;SDS011;46208;44.634;10.492;2022-09-09T20:07:46;0.50;;;0.40;;
60368;SDS011;46208;44.634;10.492;2022-09-09T20:10:51;3.65;;;0.50;;
60368;SDS011;46208;44.634;10.492;2022-09-09T20:13:55;0.40;;;0.40;;
60368;SDS011;46208;44.634;10.492;2022-09-09T20:16:58;0.32;;;0.32;;
60368;SDS011;46208;44.634;10.492;2022-09-09T20:20:02;0.20;;;0.20;;
60368;SDS011;46208;44.634;10.492;2022-09-09T20:23:06;1.77;;;0.57;;
60368;SDS011;46208;44.634;10.492;2022-09-09T20:26:12;0.45;;;0.40;;
60368;SDS011;46208;44.634;10.492;2022-09-09T20:29:18;0.30;;;0.22;;
60368;SDS011;46208;44.634;10.492;2022-09-09T20:32:22;0.63;;;0.25;;
60368;SDS011;46208;44.634;10.492;2022-09-09T20:35:27;1.05;;;0.30;;
60368;SDS011;46208;44.634;10.492;2022-09-09T20:38:31;0.63;;;0.32;;